Impacts TAF Board
For situational awareness. Not to be used for flight planning purposes.
IDs:

KDEN - Denver Intl, CO, US

Issued at 0310 UTC 19 Feb 2019
Updated at 0326 UTC 19 Feb 2019
Potential Impact None Slight Moderate High
Time<<20/04Z 20/05Z 20/06Z 20/07Z 20/08Z 20/09Z 20/10Z 20/11Z 20/12Z 20/13Z 20/14Z 20/15Z 20/16Z
Type PRVL PRVL
VIS >6 >6
CIG 50 50
Cover BKN BKN
FltCat VFR VFR
WX -SN -SN
WDir 330 330
WSpd 6 6
WGst -- --
Raw TAF
KDEN 190310Z 1903/2006 28009KT P6SM -SN OVC030
  FM190400 25010KT P6SM -SN SCT020 BKN040
  FM190630 19010KT P6SM VCSH SCT020 OVC040
  FM191000 17013KT 6SM -SN SCT020 OVC030
  TEMPO 1912/1914 3SM -SN BKN020
  FM191400 08006KT P6SM BKN020
  FM192000 07006KT P6SM SCT020 BKN050
  PROB30 1920/1924 4SM -SN BKN020
  FM200300 33006KT P6SM -SN SCT020 BKN050


METAR Board
Radar Display
Forecast Discussion
For situational awareness. Not to be used for flight planning purposes.